createdAt,value
2018-02-22T00:00:01.264Z,77.05
2018-02-22T00:02:28.949Z,77.42
2018-02-22T00:04:56.627Z,77.52
2018-02-22T00:07:24.307Z,77.51
2018-02-22T00:09:51.987Z,77.67
2018-02-22T00:12:19.680Z,77.66
2018-02-22T00:14:47.370Z,77.76
2018-02-22T00:17:15.056Z,77.91
2018-02-22T00:19:42.977Z,77.90
2018-02-22T00:22:18.338Z,77.94
2018-02-22T00:24:46.381Z,77.93
2018-02-22T00:27:14.097Z,77.99
2018-02-22T00:29:41.742Z,78.32
2018-02-22T00:32:09.436Z,78.24
2018-02-22T00:34:37.072Z,78.17
2018-02-22T00:37:04.787Z,78.55
2018-02-22T00:39:32.459Z,78.50
2018-02-22T00:42:00.161Z,78.60
2018-02-22T00:44:28.205Z,78.61
2018-02-22T00:46:55.895Z,78.80
2018-02-22T00:49:23.789Z,78.71
2018-02-22T00:51:51.806Z,79.20
2018-02-22T00:54:19.542Z,79.03
2018-02-22T00:56:47.391Z,78.92
2018-02-22T00:59:15.017Z,78.91
2018-02-22T01:01:42.703Z,79.19
2018-02-22T01:04:10.500Z,79.26
2018-02-22T01:06:38.220Z,79.07
2018-02-22T01:09:05.900Z,79.05
2018-02-22T01:11:34.115Z,79.27
2018-02-22T01:14:01.896Z,79.34
2018-02-22T01:16:29.513Z,79.59
2018-02-22T01:18:57.284Z,79.81
2018-02-22T01:21:24.946Z,79.71
2018-02-22T01:23:52.793Z,79.90
2018-02-22T01:26:20.405Z,80.01
2018-02-22T01:28:48.053Z,80.55
2018-02-22T01:31:15.869Z,80.33
2018-02-22T01:33:43.634Z,80.16
2018-02-22T01:36:11.278Z,80.09
2018-02-22T01:38:38.925Z,80.16
2018-02-22T01:41:06.627Z,80.45
2018-02-22T01:43:34.285Z,80.35
2018-02-22T01:46:01.988Z,80.31
2018-02-22T01:48:29.670Z,80.33
2018-02-22T01:50:57.410Z,80.35
2018-02-22T01:53:25.113Z,80.60
2018-02-22T01:55:52.754Z,80.52
2018-02-22T01:58:20.388Z,80.52
2018-02-22T02:00:48.017Z,80.63
2018-02-22T02:03:15.664Z,80.62
2018-02-22T02:05:43.306Z,80.63
2018-02-22T02:08:10.952Z,80.60
2018-02-22T02:10:38.949Z,80.67
2018-02-22T02:13:07.126Z,80.81
2018-02-22T02:15:34.759Z,80.94
2018-02-22T02:18:02.357Z,80.93
2018-02-22T02:20:30.108Z,80.86
2018-02-22T02:22:57.770Z,80.92
2018-02-22T02:25:25.442Z,80.97
2018-02-22T02:30:33.616Z,81.16
2018-02-22T02:33:01.239Z,81.33
2018-02-22T02:35:29.260Z,81.35
2018-02-22T02:37:57.130Z,81.42
2018-02-22T02:40:24.773Z,81.40
2018-02-22T02:42:52.463Z,81.39
2018-02-22T02:45:20.093Z,81.41
2018-02-22T02:47:47.711Z,81.70
2018-02-22T02:50:15.331Z,81.82
2018-02-22T02:52:43.164Z,81.83
2018-02-22T02:55:10.906Z,81.90
2018-02-22T02:57:38.527Z,81.88
2018-02-22T03:00:06.135Z,81.80
2018-02-22T03:02:33.781Z,81.97
2018-02-22T03:05:01.768Z,82.17
2018-02-22T03:07:29.419Z,82.27
2018-02-22T03:09:57.024Z,82.12
2018-02-22T03:12:24.656Z,82.16
2018-02-22T03:14:52.312Z,82.15
2018-02-22T03:17:19.916Z,82.33
2018-02-22T03:19:47.534Z,82.25
2018-02-22T03:22:15.189Z,82.52
2018-02-22T03:24:42.856Z,82.44
2018-02-22T03:27:10.523Z,82.27
2018-02-22T03:29:38.158Z,82.28
2018-02-22T03:32:05.841Z,82.28
2018-02-22T03:34:33.464Z,82.47
2018-02-22T03:37:01.097Z,82.67
2018-02-22T03:39:28.726Z,82.57
2018-02-22T03:41:56.722Z,82.52
2018-02-22T03:44:24.308Z,82.57
2018-02-22T03:46:52.169Z,82.51
2018-02-22T03:49:20.021Z,82.58
2018-02-22T03:51:47.817Z,82.59
2018-02-22T03:54:15.638Z,82.53
2018-02-22T03:56:43.257Z,82.48
2018-02-22T03:59:11.174Z,82.49
2018-02-22T04:01:38.966Z,82.47
2018-02-22T04:04:06.636Z,82.60
2018-02-22T04:06:34.288Z,82.64
2018-02-22T04:09:02.266Z,82.70
2018-02-22T04:11:29.953Z,82.89
2018-02-22T04:13:57.795Z,82.87
2018-02-22T04:16:25.542Z,82.92
2018-02-22T04:18:53.183Z,82.92
2018-02-22T04:21:20.991Z,82.96
2018-02-22T04:23:48.655Z,82.90
2018-02-22T04:26:16.427Z,82.99
2018-02-22T04:28:44.337Z,83.20
2018-02-22T04:31:11.948Z,83.27
2018-02-22T04:33:39.623Z,83.53
2018-02-22T04:36:07.265Z,83.54
2018-02-22T04:38:34.951Z,83.76
2018-02-22T04:41:02.574Z,83.76
2018-02-22T04:43:30.202Z,84.24
2018-02-22T04:45:57.787Z,84.17
2018-02-22T04:48:25.438Z,84.14
2018-02-22T04:50:53.079Z,84.14
2018-02-22T04:53:20.670Z,84.09
2018-02-22T04:55:48.385Z,84.06
2018-02-22T04:58:15.967Z,84.02
2018-02-22T05:00:44.453Z,83.96
2018-02-22T05:03:12.067Z,83.86
2018-02-22T05:05:39.672Z,83.82
2018-02-22T05:08:07.583Z,83.90
2018-02-22T05:10:35.277Z,83.89
2018-02-22T05:13:03.063Z,83.98
2018-02-22T05:15:30.710Z,84.07
2018-02-22T05:17:58.396Z,84.08
2018-02-22T05:20:25.996Z,84.05
2018-02-22T05:22:53.634Z,84.04
2018-02-22T05:25:21.280Z,84.09
2018-02-22T05:27:48.950Z,84.10
2018-02-22T05:30:16.570Z,84.14
2018-02-22T05:32:44.247Z,84.13
2018-02-22T05:35:11.842Z,84.13
2018-02-22T05:37:39.432Z,84.15
2018-02-22T05:40:07.065Z,84.20
2018-02-22T05:42:34.727Z,84.44
2018-02-22T05:45:02.366Z,84.57
2018-02-22T05:47:30.046Z,84.78
2018-02-22T05:49:57.945Z,86.15
2018-02-22T05:52:25.685Z,85.75
2018-02-22T05:54:53.607Z,85.55
2018-02-22T05:57:21.447Z,85.46
2018-02-22T05:59:49.074Z,85.80
2018-02-22T06:02:16.689Z,85.70
2018-02-22T06:04:44.457Z,85.71
2018-02-22T06:07:12.111Z,86.01
2018-02-22T06:09:39.801Z,85.88
2018-02-22T06:12:07.459Z,85.84
2018-02-22T06:14:35.184Z,85.76
2018-02-22T06:17:02.799Z,85.75
2018-02-22T06:19:30.481Z,85.82
2018-02-22T06:21:58.207Z,85.84
2018-02-22T06:24:25.960Z,86.03
2018-02-22T06:26:54.989Z,86.03
2018-02-22T06:29:22.664Z,86.09
2018-02-22T06:31:50.332Z,86.22
2018-02-22T06:34:17.965Z,86.23
2018-02-22T06:36:45.701Z,86.29
2018-02-22T06:39:13.383Z,86.28
2018-02-22T06:41:41.012Z,86.25
2018-02-22T06:44:08.894Z,86.23
2018-02-22T06:46:36.569Z,86.14
2018-02-22T06:49:04.192Z,86.22
2018-02-22T06:51:32.220Z,86.23
2018-02-22T06:53:59.884Z,86.31
2018-02-22T06:56:27.549Z,86.43
2018-02-22T06:58:55.191Z,86.74
2018-02-22T07:01:22.953Z,86.65
2018-02-22T07:03:50.712Z,86.70
2018-02-22T07:06:18.374Z,86.69
2018-02-22T07:08:46.005Z,86.89
2018-02-22T07:11:13.658Z,86.91
2018-02-22T07:13:41.303Z,86.93
2018-02-22T07:16:09.025Z,86.94
2018-02-22T07:18:36.836Z,87.01
2018-02-22T07:21:04.449Z,86.93
2018-02-22T07:23:32.174Z,87.12
2018-02-22T07:25:59.922Z,87.12
2018-02-22T07:28:27.866Z,87.68
2018-02-22T07:30:55.594Z,87.67
2018-02-22T07:33:23.218Z,87.74
2018-02-22T07:35:50.838Z,87.60
2018-02-22T07:38:18.523Z,87.53
2018-02-22T07:40:46.219Z,87.67
2018-02-22T07:43:13.914Z,87.60
2018-02-22T07:45:41.672Z,87.53
2018-02-22T07:48:09.405Z,87.88
2018-02-22T07:50:37.130Z,87.74
2018-02-22T07:53:04.851Z,87.72
2018-02-22T07:55:32.614Z,87.79
2018-02-22T07:58:00.249Z,87.63
2018-02-22T08:00:27.940Z,87.38
2018-02-22T08:02:55.606Z,87.30
2018-02-22T08:05:23.303Z,87.21
2018-02-22T08:07:50.972Z,87.01
2018-02-22T08:10:18.939Z,86.97
2018-02-22T08:12:46.642Z,86.75
2018-02-22T08:15:14.299Z,86.61
2018-02-22T08:17:41.962Z,86.59
2018-02-22T08:20:09.681Z,86.56
2018-02-22T08:22:37.337Z,86.46
2018-02-22T08:25:05.062Z,86.48
2018-02-22T08:27:32.866Z,86.32
2018-02-22T08:30:00.559Z,85.90
2018-02-22T08:32:28.281Z,85.69
2018-02-22T08:34:56.017Z,85.46
2018-02-22T08:37:23.715Z,85.39
2018-02-22T08:39:51.384Z,85.47
2018-02-22T08:42:19.068Z,85.72
2018-02-22T08:44:46.781Z,85.35
2018-02-22T08:47:14.451Z,85.23
2018-02-22T08:49:42.156Z,85.14
2018-02-22T08:52:09.873Z,84.75
2018-02-22T08:54:37.563Z,84.58
2018-02-22T08:57:05.226Z,84.64
2018-02-22T08:59:32.946Z,83.49
2018-02-22T09:02:00.675Z,83.43
2018-02-22T09:04:28.308Z,83.53
2018-02-22T09:06:56.046Z,83.37
2018-02-22T09:09:24.172Z,83.24
2018-02-22T09:11:51.791Z,82.90
2018-02-22T09:14:19.482Z,82.53
2018-02-22T09:16:47.129Z,82.04
2018-02-22T09:19:14.782Z,82.31
2018-02-22T09:21:42.422Z,82.17
2018-02-22T09:24:10.343Z,81.77
2018-02-22T09:26:38.027Z,81.57
2018-02-22T09:29:05.672Z,82.26
2018-02-22T09:31:33.290Z,82.08
2018-02-22T09:34:01.019Z,81.70
2018-02-22T09:36:28.708Z,81.88
2018-02-22T09:38:56.429Z,81.77
2018-02-22T09:41:24.111Z,81.71
2018-02-22T09:43:51.773Z,81.78
2018-02-22T09:46:19.403Z,81.79
2018-02-22T09:48:52.806Z,81.53
2018-02-22T09:51:29.935Z,81.44
2018-02-22T09:54:01.293Z,81.54
2018-02-22T11:21:14.251Z,76.29
2018-02-22T11:23:41.937Z,76.56
2018-02-22T11:26:09.624Z,76.14
2018-02-22T11:28:37.324Z,74.62
2018-02-22T11:31:04.955Z,74.81
2018-02-22T11:33:32.964Z,74.37
2018-02-22T11:36:00.709Z,74.94
2018-02-22T11:38:28.425Z,74.97
2018-02-22T11:40:56.258Z,75.75
2018-02-22T11:43:24.047Z,75.40
2018-02-22T11:45:51.838Z,75.57
2018-02-22T11:48:20.063Z,75.86
2018-02-22T11:50:47.794Z,76.70
2018-02-22T11:53:15.511Z,77.07
2018-02-22T11:55:43.212Z,77.25
2018-02-22T11:58:10.928Z,77.32
2018-02-22T12:00:38.639Z,77.46
2018-02-22T12:03:06.861Z,77.71
2018-02-22T12:05:34.557Z,78.11
2018-02-22T12:08:02.267Z,78.34
2018-02-22T12:10:30.030Z,78.01
2018-02-22T12:12:57.732Z,78.17
2018-02-22T12:15:25.454Z,78.14
2018-02-22T12:17:53.172Z,78.14
2018-02-22T12:20:20.901Z,78.10
2018-02-22T12:22:48.598Z,78.29
2018-02-22T12:25:16.735Z,78.49
2018-02-22T12:27:44.562Z,78.70
2018-02-22T12:30:12.608Z,78.88
2018-02-22T12:32:40.296Z,79.11
2018-02-22T12:35:08.071Z,78.20
2018-02-22T12:37:35.848Z,78.92
2018-02-22T12:40:03.936Z,78.62
2018-02-22T12:42:31.667Z,79.19
2018-02-22T12:44:59.395Z,78.78
2018-02-22T12:47:27.147Z,78.87
2018-02-22T12:49:55.202Z,77.57
2018-02-22T12:52:22.898Z,77.43
2018-02-22T12:54:50.662Z,78.02
2018-02-22T12:57:18.390Z,77.98
2018-02-22T12:59:46.070Z,77.51
2018-02-22T13:02:14.856Z,77.71
2018-02-22T13:04:42.602Z,77.95
2018-02-22T13:07:10.280Z,77.18
2018-02-22T13:09:38.250Z,76.99
2018-02-22T13:12:06.166Z,76.24
2018-02-22T13:14:33.855Z,76.79
2018-02-22T13:17:01.958Z,76.84
2018-02-22T13:19:29.636Z,76.29
2018-02-22T13:21:57.306Z,76.32
2018-02-22T13:24:25.029Z,76.47
2018-02-22T13:26:53.018Z,76.72
2018-02-22T13:29:20.684Z,76.83
2018-02-22T13:31:48.497Z,76.63
2018-02-22T13:34:28.209Z,75.91
2018-02-22T13:36:56.354Z,75.91
2018-02-22T13:39:24.102Z,76.31
2018-02-22T13:41:51.887Z,75.87
2018-02-22T13:44:31.536Z,75.34
2018-02-22T13:46:59.300Z,75.67
2018-02-22T13:49:38.761Z,75.69
2018-02-22T13:52:06.477Z,75.34
2018-02-22T13:54:34.193Z,75.23
2018-02-22T13:57:16.707Z,75.21
2018-02-22T13:59:44.403Z,75.07
2018-02-22T14:02:23.530Z,75.25
2018-02-22T14:04:51.185Z,74.61
2018-02-22T14:07:19.208Z,75.00
2018-02-22T14:09:47.179Z,74.98
2018-02-22T14:12:14.829Z,75.06
2018-02-22T14:14:42.514Z,74.61
2018-02-22T14:17:10.163Z,73.71
2018-02-22T14:19:37.835Z,74.37
2018-02-22T14:22:05.641Z,74.80
2018-02-22T14:24:33.322Z,74.65
2018-02-22T14:27:00.938Z,74.47
2018-02-22T14:29:28.622Z,75.04
2018-02-22T14:31:56.286Z,74.79
2018-02-22T14:34:23.938Z,74.28
2018-02-22T14:36:51.638Z,74.21
2018-02-22T14:39:19.269Z,74.28
2018-02-22T14:41:46.960Z,74.39
2018-02-22T14:44:14.621Z,74.51
2018-02-22T14:46:42.344Z,74.06
2018-02-22T14:49:09.980Z,74.10
2018-02-22T14:51:37.608Z,74.14
2018-02-22T14:54:05.254Z,73.64
2018-02-22T14:56:32.881Z,73.91
2018-02-22T14:59:00.558Z,74.26
2018-02-22T15:01:28.194Z,74.04
2018-02-22T15:03:56.136Z,73.02
2018-02-22T15:06:23.816Z,72.48
2018-02-22T15:08:51.462Z,72.68
2018-02-22T15:11:19.197Z,72.34
2018-02-22T15:13:46.812Z,72.58
2018-02-22T15:16:14.420Z,72.56
2018-02-22T15:18:42.221Z,72.70
2018-02-22T15:21:09.921Z,72.98
2018-02-22T15:23:37.652Z,73.05
2018-02-22T15:26:05.327Z,73.33
2018-02-22T15:28:32.981Z,73.21
2018-02-22T15:31:00.650Z,73.07
2018-02-22T15:33:28.418Z,72.93
2018-02-22T15:35:56.069Z,73.57
2018-02-22T15:38:23.777Z,73.78
2018-02-22T15:40:51.483Z,73.84
2018-02-22T15:43:19.385Z,74.01
2018-02-22T15:45:47.046Z,73.89
2018-02-22T15:48:14.794Z,73.98
2018-02-22T15:50:42.456Z,74.17
2018-02-22T15:53:10.149Z,74.25
2018-02-22T15:55:37.824Z,74.43
2018-02-22T15:58:05.521Z,74.36
2018-02-22T16:00:33.521Z,74.57
2018-02-22T16:03:01.173Z,74.70
2018-02-22T16:05:28.852Z,74.83
2018-02-22T16:07:56.792Z,74.85
2018-02-22T16:10:24.512Z,74.90
2018-02-22T16:13:09.130Z,74.90
2018-02-22T16:15:36.841Z,74.91
2018-02-22T16:18:04.528Z,74.85
2018-02-22T16:20:32.233Z,74.62
2018-02-22T16:22:59.894Z,74.61
2018-02-22T16:25:27.613Z,74.61
2018-02-22T16:27:55.324Z,74.62
2018-02-22T16:30:23.004Z,74.53
2018-02-22T16:32:50.751Z,74.52
2018-02-22T16:35:18.407Z,74.48
2018-02-22T16:37:46.126Z,74.69
2018-02-22T16:40:13.800Z,74.91
2018-02-22T16:42:41.490Z,75.17
2018-02-22T16:45:09.229Z,75.47
2018-02-22T16:47:36.908Z,75.88
2018-02-22T16:50:04.609Z,75.98
2018-02-22T16:52:32.649Z,76.21
2018-02-22T16:55:00.324Z,76.31
2018-02-22T16:57:27.989Z,76.17
2018-02-22T16:59:55.660Z,76.30
2018-02-22T17:02:23.341Z,76.61
2018-02-22T17:04:50.968Z,76.75
2018-02-22T17:07:18.863Z,76.79
2018-02-22T17:09:46.491Z,76.78
2018-02-22T17:12:14.127Z,76.78
2018-02-22T17:14:41.782Z,76.80
2018-02-22T17:17:09.416Z,76.88
2018-02-22T17:19:37.100Z,77.00
2018-02-22T17:22:04.788Z,77.09
2018-02-22T17:24:32.492Z,77.21
2018-02-22T17:27:05.712Z,77.46
2018-02-22T17:29:38.818Z,77.71
2018-02-22T17:32:12.131Z,77.87
2018-02-22T17:34:39.823Z,78.22
2018-02-22T17:37:07.958Z,78.60
2018-02-22T17:42:38.628Z,79.26
2018-02-22T17:45:06.592Z,79.62
2018-02-22T17:47:34.288Z,79.43
2018-02-22T17:50:02.080Z,79.67
2018-02-22T17:52:29.752Z,79.61
2018-02-22T17:54:57.448Z,79.71
2018-02-22T17:57:25.234Z,79.83
2018-02-22T17:59:52.944Z,80.17
2018-02-22T18:02:20.608Z,80.22
2018-02-22T18:04:48.614Z,80.27
2018-02-22T18:07:16.331Z,80.19
2018-02-22T18:09:44.025Z,80.10
2018-02-22T18:12:11.743Z,80.29
2018-02-22T18:14:39.706Z,80.39
2018-02-22T18:17:08.004Z,80.43
2018-02-22T18:19:36.456Z,80.67
2018-02-22T18:22:04.428Z,80.96
2018-02-22T18:24:32.166Z,80.72
2018-02-22T18:26:59.870Z,80.79
2018-02-22T18:29:29.740Z,80.74
2018-02-22T18:31:57.936Z,80.85
2018-02-22T18:34:25.891Z,80.83
2018-02-22T18:36:53.592Z,80.81
2018-02-22T18:39:26.951Z,80.78
2018-02-22T18:41:54.707Z,81.16
2018-02-22T18:44:28.003Z,81.00
2018-02-22T18:46:55.862Z,81.05
2018-02-22T18:49:23.543Z,81.09
2018-02-22T18:51:51.407Z,81.30
2018-02-22T18:54:19.087Z,81.50
2018-02-22T18:56:47.045Z,81.71
2018-02-22T18:59:14.790Z,81.84
2018-02-22T19:01:42.882Z,81.77
2018-02-22T19:04:10.492Z,81.83
2018-02-22T19:06:38.209Z,81.88
2018-02-22T19:09:06.016Z,82.01
2018-02-22T19:11:33.693Z,81.99
2018-02-22T19:14:01.331Z,82.24
2018-02-22T19:16:28.975Z,82.15
2018-02-22T19:18:56.921Z,82.23
2018-02-22T19:21:24.548Z,82.47
2018-02-22T19:23:52.226Z,82.37
2018-02-22T19:26:20.204Z,82.47
2018-02-22T19:28:48.118Z,82.49
2018-02-22T19:31:15.842Z,82.51
2018-02-22T19:33:43.607Z,83.03
2018-02-22T19:36:11.451Z,82.84
2018-02-22T19:38:39.068Z,82.95
2018-02-22T19:41:06.915Z,82.98
2018-02-22T19:43:34.791Z,82.82
2018-02-22T19:46:02.580Z,82.90
2018-02-22T19:48:30.310Z,83.09
2018-02-22T19:50:58.025Z,83.82
2018-02-22T19:53:25.741Z,83.69
2018-02-22T19:55:53.366Z,83.77
2018-02-22T19:58:21.178Z,83.95
2018-02-22T20:00:48.981Z,83.85
2018-02-22T20:03:16.591Z,84.40
2018-02-22T20:05:44.427Z,84.67
2018-02-22T20:08:12.155Z,84.60
2018-02-22T20:10:39.826Z,84.52
2018-02-22T20:13:07.467Z,84.74
2018-02-22T20:15:35.474Z,85.49
2018-02-22T20:18:03.165Z,85.26
2018-02-22T20:20:30.824Z,85.26
2018-02-22T20:22:58.624Z,85.16
2018-02-22T20:25:26.659Z,85.29
2018-02-22T20:27:54.411Z,85.43
2018-02-22T20:30:22.041Z,85.46
2018-02-22T20:32:49.653Z,85.44
2018-02-22T20:35:17.322Z,85.46
2018-02-22T20:37:45.034Z,85.56
2018-02-22T20:40:12.729Z,86.07
2018-02-22T20:42:40.400Z,86.04
2018-02-22T20:45:08.082Z,86.29
2018-02-22T20:47:35.794Z,86.13
2018-02-22T20:50:03.996Z,86.19
2018-02-22T20:52:37.177Z,86.66
2018-02-22T20:58:07.328Z,87.07
2018-02-22T21:00:35.062Z,87.89
2018-02-22T21:03:03.063Z,87.93
2018-02-22T21:05:30.758Z,87.74
2018-02-22T21:07:58.399Z,87.58
2018-02-22T21:10:26.135Z,87.78
2018-02-22T21:12:53.769Z,87.60
2018-02-22T21:15:21.374Z,87.87
2018-02-22T21:17:49.237Z,87.78
2018-02-22T21:20:16.851Z,88.13
2018-02-22T21:22:44.878Z,88.22
2018-02-22T21:25:12.522Z,88.60
2018-02-22T21:27:40.165Z,88.33
2018-02-22T21:30:07.830Z,88.65
2018-02-22T21:32:35.497Z,88.31
2018-02-22T21:35:03.137Z,88.73
2018-02-22T21:37:30.831Z,88.77
2018-02-22T21:39:58.504Z,88.83
2018-02-22T21:42:26.167Z,88.77
2018-02-22T21:44:54.037Z,88.54
2018-02-22T21:47:21.678Z,88.31
2018-02-22T21:49:49.487Z,88.45
2018-02-22T21:52:17.155Z,88.47
2018-02-22T21:54:44.837Z,88.47
2018-02-22T21:57:12.768Z,88.29
2018-02-22T21:59:40.363Z,88.46
2018-02-22T22:02:07.983Z,88.46
2018-02-22T22:04:36.356Z,88.43
2018-02-22T22:07:04.713Z,88.88
2018-02-22T22:09:32.792Z,88.77
2018-02-22T22:12:00.853Z,89.00
2018-02-22T22:14:28.969Z,89.04
2018-02-22T22:16:57.139Z,89.29
2018-02-22T22:19:25.256Z,89.32
2018-02-22T22:21:53.127Z,89.48
2018-02-22T22:24:20.848Z,89.45
2018-02-22T22:26:48.913Z,89.35
2018-02-22T22:29:16.610Z,89.29
2018-02-22T22:31:44.317Z,89.55
2018-02-22T22:34:11.959Z,89.56
2018-02-22T22:36:49.762Z,89.78
2018-02-22T22:39:19.104Z,89.97
2018-02-22T22:41:55.511Z,89.78
2018-02-22T22:44:23.227Z,90.02
2018-02-22T22:46:50.872Z,89.99
2018-02-22T22:49:18.505Z,90.36
2018-02-22T22:51:46.073Z,90.42
2018-02-22T22:54:13.686Z,90.29
2018-02-22T22:56:41.362Z,90.10
2018-02-22T22:59:09.004Z,90.10
2018-02-22T23:01:36.605Z,90.14
2018-02-22T23:04:04.242Z,90.45
2018-02-22T23:06:31.964Z,90.29
2018-02-22T23:08:59.732Z,90.17
2018-02-22T23:11:27.308Z,90.29
2018-02-22T23:13:54.984Z,90.73
2018-02-22T23:16:22.602Z,90.69
2018-02-22T23:18:50.273Z,90.44
2018-02-22T23:21:17.865Z,90.51
2018-02-22T23:23:45.456Z,90.46
2018-02-22T23:26:13.104Z,90.36
2018-02-22T23:28:40.721Z,90.29
2018-02-22T23:31:08.368Z,90.59
2018-02-22T23:33:36.006Z,90.45
2018-02-22T23:36:03.631Z,90.40
2018-02-22T23:38:31.238Z,90.31
2018-02-22T23:41:02.075Z,90.25
2018-02-22T23:43:29.992Z,90.16
2018-02-22T23:45:57.614Z,90.46
2018-02-22T23:48:25.323Z,90.34
2018-02-22T23:50:52.898Z,90.24
2018-02-22T23:53:20.712Z,90.28
2018-02-22T23:55:48.711Z,90.20
2018-02-22T23:58:16.358Z,90.14
